sensor_id;sensor_type;location;lat;lon;timestamp;P1;durP1;ratioP1;P2;durP2;ratioP2
1691;SDS011;843;52.054;8.552;2023-11-21T05:51:41;29.20;;;15.20;;
1691;SDS011;843;52.054;8.552;2023-11-21T05:54:08;26.03;;;16.50;;
1691;SDS011;843;52.054;8.552;2023-11-21T05:56:35;31.73;;;16.63;;
1691;SDS011;843;52.054;8.552;2023-11-21T05:59:01;33.40;;;16.20;;
1691;SDS011;843;52.054;8.552;2023-11-21T06:01:28;28.33;;;15.30;;
1691;SDS011;843;52.054;8.552;2023-11-21T06:03:54;28.27;;;15.10;;
1691;SDS011;843;52.054;8.552;2023-11-21T06:06:21;33.57;;;15.77;;
1691;SDS011;843;52.054;8.552;2023-11-21T06:08:51;30.30;;;15.00;;
1691;SDS011;843;52.054;8.552;2023-11-21T06:11:17;29.03;;;15.20;;
1691;SDS011;843;52.054;8.552;2023-11-21T06:13:43;26.03;;;15.60;;
1691;SDS011;843;52.054;8.552;2023-11-21T06:16:10;28.27;;;15.07;;
1691;SDS011;843;52.054;8.552;2023-11-21T06:18:38;27.53;;;13.80;;
1691;SDS011;843;52.054;8.552;2023-11-21T06:21:05;32.03;;;17.07;;
1691;SDS011;843;52.054;8.552;2023-11-21T06:23:31;32.03;;;14.77;;
1691;SDS011;843;52.054;8.552;2023-11-21T06:25:59;29.00;;;15.77;;
1691;SDS011;843;52.054;8.552;2023-11-21T06:28:25;27.37;;;14.20;;
1691;SDS011;843;52.054;8.552;2023-11-21T06:30:52;31.37;;;15.07;;
1691;SDS011;843;52.054;8.552;2023-11-21T06:33:18;24.93;;;13.50;;
1691;SDS011;843;52.054;8.552;2023-11-21T06:35:46;31.63;;;16.70;;
1691;SDS011;843;52.054;8.552;2023-11-21T06:38:13;33.00;;;15.30;;
1691;SDS011;843;52.054;8.552;2023-11-21T06:40:39;28.63;;;14.57;;
1691;SDS011;843;52.054;8.552;2023-11-21T06:43:07;29.63;;;14.83;;
1691;SDS011;843;52.054;8.552;2023-11-21T06:45:33;30.80;;;17.23;;
1691;SDS011;843;52.054;8.552;2023-11-21T06:48:00;27.13;;;14.37;;
1691;SDS011;843;52.054;8.552;2023-11-21T06:50:26;38.20;;;17.63;;
1691;SDS011;843;52.054;8.552;2023-11-21T06:52:52;27.63;;;15.20;;
1691;SDS011;843;52.054;8.552;2023-11-21T06:55:22;37.47;;;18.13;;
1691;SDS011;843;52.054;8.552;2023-11-21T06:57:48;31.83;;;16.13;;
1691;SDS011;843;52.054;8.552;2023-11-21T07:00:17;31.70;;;15.50;;
1691;SDS011;843;52.054;8.552;2023-11-21T07:02:43;30.47;;;15.53;;
1691;SDS011;843;52.054;8.552;2023-11-21T07:05:10;27.73;;;14.73;;
1691;SDS011;843;52.054;8.552;2023-11-21T07:07:36;33.70;;;16.63;;
1691;SDS011;843;52.054;8.552;2023-11-21T07:10:04;27.53;;;15.83;;
1691;SDS011;843;52.054;8.552;2023-11-21T07:12:31;35.07;;;16.50;;
1691;SDS011;843;52.054;8.552;2023-11-21T07:14:57;29.20;;;17.10;;
1691;SDS011;843;52.054;8.552;2023-11-21T07:17:25;34.23;;;16.93;;
1691;SDS011;843;52.054;8.552;2023-11-21T07:19:51;35.40;;;18.23;;
1691;SDS011;843;52.054;8.552;2023-11-21T07:22:18;31.53;;;17.50;;
1691;SDS011;843;52.054;8.552;2023-11-21T07:24:47;37.77;;;18.00;;
1691;SDS011;843;52.054;8.552;2023-11-21T07:27:14;37.63;;;18.10;;
1691;SDS011;843;52.054;8.552;2023-11-21T07:29:40;41.87;;;20.00;;
1691;SDS011;843;52.054;8.552;2023-11-21T07:32:06;36.47;;;18.37;;
1691;SDS011;843;52.054;8.552;2023-11-21T07:34:35;33.10;;;18.47;;
1691;SDS011;843;52.054;8.552;2023-11-21T07:37:02;40.63;;;17.63;;
1691;SDS011;843;52.054;8.552;2023-11-21T07:39:28;38.23;;;19.17;;
1691;SDS011;843;52.054;8.552;2023-11-21T07:41:55;37.80;;;18.83;;
1691;SDS011;843;52.054;8.552;2023-11-21T07:44:23;34.17;;;17.50;;
1691;SDS011;843;52.054;8.552;2023-11-21T07:46:49;37.40;;;19.10;;
1691;SDS011;843;52.054;8.552;2023-11-21T07:49:15;30.53;;;17.07;;
1691;SDS011;843;52.054;8.552;2023-11-21T07:51:46;37.50;;;18.20;;
1691;SDS011;843;52.054;8.552;2023-11-21T07:54:13;30.93;;;17.53;;
1691;SDS011;843;52.054;8.552;2023-11-21T07:56:39;35.57;;;16.57;;
1691;SDS011;843;52.054;8.552;2023-11-21T07:59:05;30.13;;;15.53;;
1691;SDS011;843;52.054;8.552;2023-11-21T08:01:32;36.67;;;16.60;;
1691;SDS011;843;52.054;8.552;2023-11-21T08:03:58;37.83;;;18.43;;
1691;SDS011;843;52.054;8.552;2023-11-21T08:06:28;36.40;;;16.57;;
1691;SDS011;843;52.054;8.552;2023-11-21T08:08:56;37.73;;;17.90;;
1691;SDS011;843;52.054;8.552;2023-11-21T08:11:23;35.80;;;17.40;;
1691;SDS011;843;52.054;8.552;2023-11-21T08:13:49;33.60;;;17.37;;
1691;SDS011;843;52.054;8.552;2023-11-21T08:16:15;40.67;;;17.10;;
1691;SDS011;843;52.054;8.552;2023-11-21T08:18:42;37.00;;;16.63;;
1691;SDS011;843;52.054;8.552;2023-11-21T08:21:08;39.07;;;17.20;;
1691;SDS011;843;52.054;8.552;2023-11-21T08:23:37;33.37;;;15.77;;
1691;SDS011;843;52.054;8.552;2023-11-21T08:26:05;31.70;;;13.93;;
1691;SDS011;843;52.054;8.552;2023-11-21T08:28:31;25.33;;;15.10;;
1691;SDS011;843;52.054;8.552;2023-11-21T08:30:58;29.90;;;14.73;;
1691;SDS011;843;52.054;8.552;2023-11-21T08:33:24;25.73;;;13.67;;
1691;SDS011;843;52.054;8.552;2023-11-21T08:35:50;30.13;;;15.27;;
1691;SDS011;843;52.054;8.552;2023-11-21T08:38:17;25.80;;;14.30;;
1691;SDS011;843;52.054;8.552;2023-11-21T08:40:43;29.57;;;15.47;;
1691;SDS011;843;52.054;8.552;2023-11-21T08:43:11;29.67;;;14.73;;
1691;SDS011;843;52.054;8.552;2023-11-21T08:45:39;30.13;;;14.33;;
1691;SDS011;843;52.054;8.552;2023-11-21T08:48:06;27.57;;;12.63;;
1691;SDS011;843;52.054;8.552;2023-11-21T08:50:33;21.40;;;11.23;;
1691;SDS011;843;52.054;8.552;2023-11-21T08:53:00;18.50;;;10.83;;
1691;SDS011;843;52.054;8.552;2023-11-21T08:55:26;20.97;;;11.13;;
1691;SDS011;843;52.054;8.552;2023-11-21T08:57:53;18.40;;;11.03;;
1691;SDS011;843;52.054;8.552;2023-11-21T09:00:23;18.63;;;10.37;;
1691;SDS011;843;52.054;8.552;2023-11-21T09:02:49;17.60;;;10.20;;
1691;SDS011;843;52.054;8.552;2023-11-21T09:05:16;21.90;;;10.47;;
1691;SDS011;843;52.054;8.552;2023-11-21T09:07:44;20.00;;;10.57;;
1691;SDS011;843;52.054;8.552;2023-11-21T09:10:11;21.87;;;11.00;;
1691;SDS011;843;52.054;8.552;2023-11-21T09:12:37;14.57;;;9.17;;
1691;SDS011;843;52.054;8.552;2023-11-21T09:15:04;19.77;;;9.40;;
1691;SDS011;843;52.054;8.552;2023-11-21T09:17:33;15.67;;;9.63;;
1691;SDS011;843;52.054;8.552;2023-11-21T09:20:00;17.70;;;10.50;;
1691;SDS011;843;52.054;8.552;2023-11-21T09:22:28;15.90;;;9.23;;
1691;SDS011;843;52.054;8.552;2023-11-21T09:24:56;18.40;;;10.87;;
1691;SDS011;843;52.054;8.552;2023-11-21T09:27:23;18.90;;;10.27;;
1691;SDS011;843;52.054;8.552;2023-11-21T09:29:50;21.00;;;12.33;;
1691;SDS011;843;52.054;8.552;2023-11-21T09:32:18;16.87;;;10.37;;
1691;SDS011;843;52.054;8.552;2023-11-21T09:34:45;17.10;;;10.70;;
1691;SDS011;843;52.054;8.552;2023-11-21T09:37:12;14.93;;;9.50;;
1691;SDS011;843;52.054;8.552;2023-11-21T09:39:38;18.47;;;10.47;;
1691;SDS011;843;52.054;8.552;2023-11-21T09:42:10;18.87;;;9.87;;
1691;SDS011;843;52.054;8.552;2023-11-21T09:44:41;16.67;;;10.60;;
1691;SDS011;843;52.054;8.552;2023-11-21T09:47:10;19.53;;;10.33;;
1691;SDS011;843;52.054;8.552;2023-11-21T09:49:36;23.30;;;11.57;;
1691;SDS011;843;52.054;8.552;2023-11-21T09:52:04;15.80;;;10.10;;
1691;SDS011;843;52.054;8.552;2023-11-21T09:54:34;17.20;;;10.20;;
1691;SDS011;843;52.054;8.552;2023-11-21T09:57:01;16.40;;;9.60;;
1691;SDS011;843;52.054;8.552;2023-11-21T09:59:28;19.20;;;10.17;;
1691;SDS011;843;52.054;8.552;2023-11-21T10:01:56;15.53;;;9.77;;
1691;SDS011;843;52.054;8.552;2023-11-21T10:04:24;14.43;;;8.93;;
1691;SDS011;843;52.054;8.552;2023-11-21T10:06:51;14.90;;;9.23;;
1691;SDS011;843;52.054;8.552;2023-11-21T10:09:20;13.27;;;9.17;;
1691;SDS011;843;52.054;8.552;2023-11-21T10:11:47;15.53;;;8.80;;
1691;SDS011;843;52.054;8.552;2023-11-21T10:14:15;13.90;;;8.60;;
1691;SDS011;843;52.054;8.552;2023-11-21T10:16:45;16.80;;;9.80;;
1691;SDS011;843;52.054;8.552;2023-11-21T10:19:13;17.90;;;9.67;;
1691;SDS011;843;52.054;8.552;2023-11-21T10:21:41;13.83;;;8.40;;
1691;SDS011;843;52.054;8.552;2023-11-21T10:24:08;13.60;;;7.90;;
1691;SDS011;843;52.054;8.552;2023-11-21T10:26:36;11.87;;;8.43;;
1691;SDS011;843;52.054;8.552;2023-11-21T10:29:02;9.47;;;6.57;;
1691;SDS011;843;52.054;8.552;2023-11-21T10:31:29;12.60;;;7.43;;
1691;SDS011;843;52.054;8.552;2023-11-21T10:33:57;11.63;;;7.90;;
1691;SDS011;843;52.054;8.552;2023-11-21T10:36:35;11.43;;;7.03;;
1691;SDS011;843;52.054;8.552;2023-11-21T10:39:02;9.30;;;6.40;;
1691;SDS011;843;52.054;8.552;2023-11-21T10:41:28;10.67;;;7.40;;
1691;SDS011;843;52.054;8.552;2023-11-21T10:43:56;11.30;;;6.70;;
1691;SDS011;843;52.054;8.552;2023-11-21T10:46:23;16.03;;;7.13;;
1691;SDS011;843;52.054;8.552;2023-11-21T10:48:52;8.83;;;6.60;;
1691;SDS011;843;52.054;8.552;2023-11-21T10:51:18;10.33;;;6.53;;
1691;SDS011;843;52.054;8.552;2023-11-21T10:53:46;11.70;;;7.00;;
1691;SDS011;843;52.054;8.552;2023-11-21T10:56:15;12.37;;;7.90;;
1691;SDS011;843;52.054;8.552;2023-11-21T10:58:45;12.97;;;7.63;;
1691;SDS011;843;52.054;8.552;2023-11-21T11:01:13;11.07;;;7.07;;
1691;SDS011;843;52.054;8.552;2023-11-21T11:03:41;11.40;;;7.27;;
1691;SDS011;843;52.054;8.552;2023-11-21T11:06:08;13.77;;;8.60;;
1691;SDS011;843;52.054;8.552;2023-11-21T11:08:36;10.57;;;7.50;;
1691;SDS011;843;52.054;8.552;2023-11-21T11:11:03;12.73;;;8.50;;
1691;SDS011;843;52.054;8.552;2023-11-21T11:13:30;11.93;;;7.40;;
1691;SDS011;843;52.054;8.552;2023-11-21T11:15:57;11.80;;;8.43;;
1691;SDS011;843;52.054;8.552;2023-11-21T11:18:26;15.70;;;8.70;;
1691;SDS011;843;52.054;8.552;2023-11-21T11:20:52;12.70;;;7.90;;
1691;SDS011;843;52.054;8.552;2023-11-21T11:23:32;10.83;;;7.57;;
1691;SDS011;843;52.054;8.552;2023-11-21T11:26:08;10.40;;;7.73;;
1691;SDS011;843;52.054;8.552;2023-11-21T11:28:42;10.90;;;7.10;;
1691;SDS011;843;52.054;8.552;2023-11-21T11:31:13;9.40;;;7.40;;
1691;SDS011;843;52.054;8.552;2023-11-21T11:33:43;13.70;;;8.70;;
1691;SDS011;843;52.054;8.552;2023-11-21T11:36:13;17.53;;;9.43;;
1691;SDS011;843;52.054;8.552;2023-11-21T11:38:45;21.13;;;12.60;;
1691;SDS011;843;52.054;8.552;2023-11-21T11:41:15;20.13;;;9.87;;
1691;SDS011;843;52.054;8.552;2023-11-21T11:43:49;17.57;;;10.47;;
1691;SDS011;843;52.054;8.552;2023-11-21T11:46:16;17.70;;;11.50;;
1691;SDS011;843;52.054;8.552;2023-11-21T11:48:44;18.10;;;9.87;;
1691;SDS011;843;52.054;8.552;2023-11-21T11:51:11;14.40;;;10.63;;
1691;SDS011;843;52.054;8.552;2023-11-21T11:53:39;17.33;;;11.40;;
1691;SDS011;843;52.054;8.552;2023-11-21T11:59:01;14.47;;;10.27;;
1691;SDS011;843;52.054;8.552;2023-11-21T12:01:28;18.43;;;10.40;;
1691;SDS011;843;52.054;8.552;2023-11-21T12:06:50;15.43;;;10.00;;
1691;SDS011;843;52.054;8.552;2023-11-21T12:09:17;14.33;;;10.20;;
1691;SDS011;843;52.054;8.552;2023-11-21T12:11:44;13.90;;;9.20;;
1691;SDS011;843;52.054;8.552;2023-11-21T12:14:11;12.70;;;9.70;;
1691;SDS011;843;52.054;8.552;2023-11-21T12:16:38;13.37;;;10.07;;
1691;SDS011;843;52.054;8.552;2023-11-21T12:19:05;14.27;;;9.67;;
1691;SDS011;843;52.054;8.552;2023-11-21T12:21:31;14.13;;;9.30;;
1691;SDS011;843;52.054;8.552;2023-11-21T12:24:00;13.37;;;10.80;;
1691;SDS011;843;52.054;8.552;2023-11-21T12:26:26;13.07;;;10.23;;
1691;SDS011;843;52.054;8.552;2023-11-21T12:28:53;13.40;;;10.10;;
1691;SDS011;843;52.054;8.552;2023-11-21T12:31:20;15.00;;;10.40;;
1691;SDS011;843;52.054;8.552;2023-11-21T12:33:47;13.30;;;9.07;;
1691;SDS011;843;52.054;8.552;2023-11-21T12:36:13;12.30;;;10.10;;
1691;SDS011;843;52.054;8.552;2023-11-21T12:38:40;13.83;;;10.20;;
1691;SDS011;843;52.054;8.552;2023-11-21T12:41:08;11.53;;;8.60;;
1691;SDS011;843;52.054;8.552;2023-11-21T12:43:35;12.80;;;10.50;;
1691;SDS011;843;52.054;8.552;2023-11-21T12:46:06;11.70;;;9.00;;
1691;SDS011;843;52.054;8.552;2023-11-21T12:48:36;11.57;;;9.20;;
1691;SDS011;843;52.054;8.552;2023-11-21T12:51:04;15.43;;;11.77;;
1691;SDS011;843;52.054;8.552;2023-11-21T12:53:30;12.47;;;9.90;;
1691;SDS011;843;52.054;8.552;2023-11-21T12:56:02;13.83;;;9.87;;
1691;SDS011;843;52.054;8.552;2023-11-21T12:58:29;11.23;;;9.63;;
1691;SDS011;843;52.054;8.552;2023-11-21T13:00:58;12.53;;;9.40;;
1691;SDS011;843;52.054;8.552;2023-11-21T13:03:25;10.70;;;9.00;;
1691;SDS011;843;52.054;8.552;2023-11-21T13:05:52;12.20;;;9.87;;
1691;SDS011;843;52.054;8.552;2023-11-21T13:08:20;9.97;;;8.97;;
1691;SDS011;843;52.054;8.552;2023-11-21T13:10:48;10.03;;;8.20;;
1691;SDS011;843;52.054;8.552;2023-11-21T13:13:15;10.47;;;7.77;;
1691;SDS011;843;52.054;8.552;2023-11-21T13:15:48;11.43;;;8.70;;
1691;SDS011;843;52.054;8.552;2023-11-21T13:18:15;8.50;;;7.60;;
1691;SDS011;843;52.054;8.552;2023-11-21T13:20:42;11.03;;;8.40;;
1691;SDS011;843;52.054;8.552;2023-11-21T13:23:09;8.33;;;7.43;;
1691;SDS011;843;52.054;8.552;2023-11-21T13:25:37;9.03;;;8.10;;
1691;SDS011;843;52.054;8.552;2023-11-21T13:28:06;12.57;;;9.47;;
1691;SDS011;843;52.054;8.552;2023-11-21T13:30:33;9.73;;;8.73;;
1691;SDS011;843;52.054;8.552;2023-11-21T13:33:01;8.70;;;7.43;;
1691;SDS011;843;52.054;8.552;2023-11-21T13:35:27;10.13;;;8.37;;
1691;SDS011;843;52.054;8.552;2023-11-21T13:38:03;10.47;;;7.53;;
1691;SDS011;843;52.054;8.552;2023-11-21T13:40:31;9.43;;;8.50;;
1691;SDS011;843;52.054;8.552;2023-11-21T13:42:59;9.70;;;8.67;;
1691;SDS011;843;52.054;8.552;2023-11-21T13:45:29;9.00;;;7.87;;
1691;SDS011;843;52.054;8.552;2023-11-21T13:47:56;10.20;;;7.13;;
1691;SDS011;843;52.054;8.552;2023-11-21T13:50:25;9.80;;;8.17;;
1691;SDS011;843;52.054;8.552;2023-11-21T13:52:57;10.03;;;9.03;;
1691;SDS011;843;52.054;8.552;2023-11-21T13:55:28;9.93;;;8.90;;
1691;SDS011;843;52.054;8.552;2023-11-21T13:57:54;10.40;;;8.90;;
1691;SDS011;843;52.054;8.552;2023-11-21T14:00:21;10.77;;;8.23;;
1691;SDS011;843;52.054;8.552;2023-11-21T14:03:10;10.50;;;8.90;;
1691;SDS011;843;52.054;8.552;2023-11-21T14:05:45;9.83;;;8.10;;
1691;SDS011;843;52.054;8.552;2023-11-21T14:08:16;8.97;;;8.10;;
1691;SDS011;843;52.054;8.552;2023-11-21T14:10:45;8.70;;;7.73;;
1691;SDS011;843;52.054;8.552;2023-11-21T14:13:15;9.47;;;8.10;;
1691;SDS011;843;52.054;8.552;2023-11-21T14:15:42;8.10;;;6.80;;
1691;SDS011;843;52.054;8.552;2023-11-21T14:18:11;8.97;;;8.03;;
1691;SDS011;843;52.054;8.552;2023-11-21T14:20:39;8.40;;;7.57;;
1691;SDS011;843;52.054;8.552;2023-11-21T14:23:08;7.77;;;6.97;;
1691;SDS011;843;52.054;8.552;2023-11-21T14:25:35;10.50;;;8.50;;
1691;SDS011;843;52.054;8.552;2023-11-21T14:28:02;8.60;;;7.67;;
1691;SDS011;843;52.054;8.552;2023-11-21T14:30:31;8.67;;;7.23;;
1691;SDS011;843;52.054;8.552;2023-11-21T14:33:00;8.73;;;7.80;;
1691;SDS011;843;52.054;8.552;2023-11-21T14:35:27;10.20;;;7.40;;
1691;SDS011;843;52.054;8.552;2023-11-21T14:37:55;10.30;;;7.00;;
1691;SDS011;843;52.054;8.552;2023-11-21T14:40:24;8.07;;;7.27;;
1691;SDS011;843;52.054;8.552;2023-11-21T14:42:54;9.37;;;6.50;;
1691;SDS011;843;52.054;8.552;2023-11-21T14:45:22;10.77;;;7.50;;
1691;SDS011;843;52.054;8.552;2023-11-21T14:47:51;8.20;;;7.37;;
1691;SDS011;843;52.054;8.552;2023-11-21T14:50:25;8.83;;;7.40;;
1691;SDS011;843;52.054;8.552;2023-11-21T14:53:17;8.33;;;7.53;;
1691;SDS011;843;52.054;8.552;2023-11-21T14:56:06;8.80;;;7.90;;
1691;SDS011;843;52.054;8.552;2023-11-21T14:58:32;9.53;;;7.00;;
1691;SDS011;843;52.054;8.552;2023-11-21T15:01:00;11.97;;;7.63;;
1691;SDS011;843;52.054;8.552;2023-11-21T15:03:26;11.20;;;8.67;;
1691;SDS011;843;52.054;8.552;2023-11-21T15:06:12;11.77;;;8.83;;
1691;SDS011;843;52.054;8.552;2023-11-21T15:08:55;9.07;;;8.00;;
1691;SDS011;843;52.054;8.552;2023-11-21T15:11:44;10.57;;;8.37;;
1691;SDS011;843;52.054;8.552;2023-11-21T15:14:12;9.87;;;7.93;;
1691;SDS011;843;52.054;8.552;2023-11-21T15:16:45;8.83;;;7.63;;
1691;SDS011;843;52.054;8.552;2023-11-21T15:19:16;9.00;;;7.50;;
1691;SDS011;843;52.054;8.552;2023-11-21T15:21:43;9.60;;;8.37;;
1691;SDS011;843;52.054;8.552;2023-11-21T15:24:10;11.40;;;8.30;;
1691;SDS011;843;52.054;8.552;2023-11-21T15:26:37;10.27;;;9.27;;
1691;SDS011;843;52.054;8.552;2023-11-21T15:29:05;11.60;;;9.00;;
1691;SDS011;843;52.054;8.552;2023-11-21T15:31:32;11.57;;;8.30;;
1691;SDS011;843;52.054;8.552;2023-11-21T15:33:59;10.70;;;7.40;;
1691;SDS011;843;52.054;8.552;2023-11-21T15:36:26;8.43;;;7.63;;
1691;SDS011;843;52.054;8.552;2023-11-21T15:38:52;9.93;;;8.10;;
1691;SDS011;843;52.054;8.552;2023-11-21T15:41:19;10.13;;;8.00;;
1691;SDS011;843;52.054;8.552;2023-11-21T15:43:46;9.10;;;7.37;;
1691;SDS011;843;52.054;8.552;2023-11-21T15:46:15;9.47;;;7.63;;
1691;SDS011;843;52.054;8.552;2023-11-21T15:48:41;8.17;;;6.60;;
1691;SDS011;843;52.054;8.552;2023-11-21T15:51:14;7.83;;;6.60;;
1691;SDS011;843;52.054;8.552;2023-11-21T15:53:41;8.10;;;7.30;;
1691;SDS011;843;52.054;8.552;2023-11-21T15:56:08;11.00;;;7.70;;
1691;SDS011;843;52.054;8.552;2023-11-21T15:58:38;8.30;;;7.00;;
1691;SDS011;843;52.054;8.552;2023-11-21T16:01:05;8.47;;;7.57;;
1691;SDS011;843;52.054;8.552;2023-11-21T16:03:35;9.17;;;7.90;;
1691;SDS011;843;52.054;8.552;2023-11-21T16:06:01;9.07;;;7.43;;
1691;SDS011;843;52.054;8.552;2023-11-21T16:08:28;8.53;;;7.17;;
1691;SDS011;843;52.054;8.552;2023-11-21T16:10:54;7.97;;;7.17;;
1691;SDS011;843;52.054;8.552;2023-11-21T16:13:21;9.20;;;8.30;;
1691;SDS011;843;52.054;8.552;2023-11-21T16:15:47;10.20;;;8.47;;
1691;SDS011;843;52.054;8.552;2023-11-21T16:18:14;7.77;;;6.80;;
1691;SDS011;843;52.054;8.552;2023-11-21T16:20:42;9.30;;;7.47;;
1691;SDS011;843;52.054;8.552;2023-11-21T16:23:09;9.53;;;8.20;;
1691;SDS011;843;52.054;8.552;2023-11-21T16:25:35;11.93;;;8.47;;
1691;SDS011;843;52.054;8.552;2023-11-21T16:28:02;8.43;;;6.97;;
1691;SDS011;843;52.054;8.552;2023-11-21T16:30:29;11.93;;;7.90;;
1691;SDS011;843;52.054;8.552;2023-11-21T16:32:56;11.17;;;8.20;;
1691;SDS011;843;52.054;8.552;2023-11-21T16:35:22;8.10;;;6.53;;
1691;SDS011;843;52.054;8.552;2023-11-21T16:37:51;9.77;;;7.97;;
1691;SDS011;843;52.054;8.552;2023-11-21T16:40:17;11.73;;;8.30;;
1691;SDS011;843;52.054;8.552;2023-11-21T16:42:44;8.50;;;7.43;;
1691;SDS011;843;52.054;8.552;2023-11-21T16:45:10;10.83;;;7.80;;
1691;SDS011;843;52.054;8.552;2023-11-21T16:47:37;10.13;;;8.40;;
1691;SDS011;843;52.054;8.552;2023-11-21T16:50:05;10.50;;;8.50;;
1691;SDS011;843;52.054;8.552;2023-11-21T16:52:31;9.53;;;7.97;;
1691;SDS011;843;52.054;8.552;2023-11-21T16:55:00;9.13;;;7.63;;
1691;SDS011;843;52.054;8.552;2023-11-21T16:57:26;9.90;;;8.30;;
1691;SDS011;843;52.054;8.552;2023-11-21T16:59:53;9.07;;;7.93;;
1691;SDS011;843;52.054;8.552;2023-11-21T17:02:19;9.90;;;8.00;;
1691;SDS011;843;52.054;8.552;2023-11-21T17:04:46;10.30;;;8.03;;
1691;SDS011;843;52.054;8.552;2023-11-21T17:07:14;9.80;;;7.37;;
1691;SDS011;843;52.054;8.552;2023-11-21T17:09:41;9.50;;;8.60;;
1691;SDS011;843;52.054;8.552;2023-11-21T17:12:09;8.40;;;7.70;;
1691;SDS011;843;52.054;8.552;2023-11-21T17:14:36;8.83;;;7.83;;
1691;SDS011;843;52.054;8.552;2023-11-21T17:17:04;9.43;;;8.47;;
1691;SDS011;843;52.054;8.552;2023-11-21T17:19:33;11.00;;;7.63;;
1691;SDS011;843;52.054;8.552;2023-11-21T17:22:00;8.43;;;7.10;;
1691;SDS011;843;52.054;8.552;2023-11-21T17:24:26;10.07;;;7.60;;
1691;SDS011;843;52.054;8.552;2023-11-21T17:26:53;8.70;;;7.70;;
1691;SDS011;843;52.054;8.552;2023-11-21T17:29:21;8.30;;;7.50;;
1691;SDS011;843;52.054;8.552;2023-11-21T17:31:47;11.27;;;8.40;;
1691;SDS011;843;52.054;8.552;2023-11-21T17:34:14;9.33;;;7.53;;
1691;SDS011;843;52.054;8.552;2023-11-21T17:36:44;12.50;;;7.90;;
1691;SDS011;843;52.054;8.552;2023-11-21T17:39:11;8.57;;;7.20;;
1691;SDS011;843;52.054;8.552;2023-11-21T17:41:38;8.70;;;7.77;;
1691;SDS011;843;52.054;8.552;2023-11-21T17:44:05;8.03;;;6.70;;
1691;SDS011;843;52.054;8.552;2023-11-21T17:46:33;7.60;;;6.70;;
1691;SDS011;843;52.054;8.552;2023-11-21T17:49:00;9.27;;;7.73;;
1691;SDS011;843;52.054;8.552;2023-11-21T17:51:26;8.40;;;7.30;;
1691;SDS011;843;52.054;8.552;2023-11-21T17:53:53;8.20;;;6.27;;
1691;SDS011;843;52.054;8.552;2023-11-21T17:56:25;8.80;;;7.30;;
1691;SDS011;843;52.054;8.552;2023-11-21T17:58:52;8.37;;;7.07;;
1691;SDS011;843;52.054;8.552;2023-11-21T18:01:21;9.70;;;7.40;;
1691;SDS011;843;52.054;8.552;2023-11-21T18:03:49;11.53;;;7.23;;
1691;SDS011;843;52.054;8.552;2023-11-21T18:06:17;7.77;;;7.07;;
1691;SDS011;843;52.054;8.552;2023-11-21T18:08:44;7.70;;;7.00;;
1691;SDS011;843;52.054;8.552;2023-11-21T18:11:10;8.83;;;7.93;;
1691;SDS011;843;52.054;8.552;2023-11-21T18:13:37;8.90;;;7.90;;
1691;SDS011;843;52.054;8.552;2023-11-21T18:16:03;9.50;;;7.47;;
1691;SDS011;843;52.054;8.552;2023-11-21T18:18:31;12.03;;;8.03;;
1691;SDS011;843;52.054;8.552;2023-11-21T18:20:58;9.70;;;8.07;;
1691;SDS011;843;52.054;8.552;2023-11-21T18:23:27;9.47;;;7.63;;
1691;SDS011;843;52.054;8.552;2023-11-21T18:25:53;8.50;;;6.60;;
1691;SDS011;843;52.054;8.552;2023-11-21T18:28:22;9.63;;;7.70;;
1691;SDS011;843;52.054;8.552;2023-11-21T18:30:49;10.10;;;7.53;;
1691;SDS011;843;52.054;8.552;2023-11-21T18:33:16;8.07;;;7.13;;
1691;SDS011;843;52.054;8.552;2023-11-21T18:35:44;10.37;;;7.10;;
1691;SDS011;843;52.054;8.552;2023-11-21T18:38:12;7.70;;;7.00;;
1691;SDS011;843;52.054;8.552;2023-11-21T18:40:39;9.40;;;8.07;;
1691;SDS011;843;52.054;8.552;2023-11-21T18:43:05;9.83;;;6.93;;
1691;SDS011;843;52.054;8.552;2023-11-21T18:45:34;9.43;;;6.73;;
1691;SDS011;843;52.054;8.552;2023-11-21T18:48:01;7.40;;;6.53;;
1691;SDS011;843;52.054;8.552;2023-11-21T18:50:29;6.80;;;6.10;;
1691;SDS011;843;52.054;8.552;2023-11-21T18:52:55;6.80;;;6.20;;
1691;SDS011;843;52.054;8.552;2023-11-21T18:55:25;8.40;;;7.60;;
1691;SDS011;843;52.054;8.552;2023-11-21T18:57:51;7.73;;;6.77;;
1691;SDS011;843;52.054;8.552;2023-11-21T19:00:20;7.33;;;5.93;;
1691;SDS011;843;52.054;8.552;2023-11-21T19:02:47;6.30;;;5.80;;
1691;SDS011;843;52.054;8.552;2023-11-21T19:05:13;8.60;;;7.10;;
1691;SDS011;843;52.054;8.552;2023-11-21T19:07:40;7.27;;;6.57;;
1691;SDS011;843;52.054;8.552;2023-11-21T19:10:06;6.93;;;6.23;;
1691;SDS011;843;52.054;8.552;2023-11-21T19:12:36;6.57;;;5.97;;
1691;SDS011;843;52.054;8.552;2023-11-21T19:15:04;7.03;;;6.37;;
1691;SDS011;843;52.054;8.552;2023-11-21T19:17:33;6.67;;;6.07;;
1691;SDS011;843;52.054;8.552;2023-11-21T19:19:59;6.93;;;5.93;;
1691;SDS011;843;52.054;8.552;2023-11-21T19:22:26;6.10;;;5.50;;
1691;SDS011;843;52.054;8.552;2023-11-21T19:24:52;7.10;;;6.40;;
1691;SDS011;843;52.054;8.552;2023-11-21T19:27:19;7.67;;;6.90;;
1691;SDS011;843;52.054;8.552;2023-11-21T19:49:16;7.40;;;6.50;;
1691;SDS011;843;52.054;8.552;2023-11-21T19:51:45;7.40;;;6.10;;
1691;SDS011;843;52.054;8.552;2023-11-21T19:54:11;7.77;;;6.97;;
1691;SDS011;843;52.054;8.552;2023-11-21T19:56:37;7.17;;;6.47;;
1691;SDS011;843;52.054;8.552;2023-11-21T19:59:06;7.67;;;6.80;;
1691;SDS011;843;52.054;8.552;2023-11-21T20:01:33;7.43;;;6.73;;
1691;SDS011;843;52.054;8.552;2023-11-21T20:04:00;7.83;;;7.03;;
1691;SDS011;843;52.054;8.552;2023-11-21T20:06:28;8.80;;;6.90;;
1691;SDS011;843;52.054;8.552;2023-11-21T20:08:54;8.73;;;6.90;;
1691;SDS011;843;52.054;8.552;2023-11-21T20:11:21;7.70;;;7.00;;
1691;SDS011;843;52.054;8.552;2023-11-21T20:13:48;8.90;;;6.50;;
1691;SDS011;843;52.054;8.552;2023-11-21T20:16:14;7.97;;;6.70;;
1691;SDS011;843;52.054;8.552;2023-11-21T20:18:43;8.97;;;6.93;;
1691;SDS011;843;52.054;8.552;2023-11-21T20:21:10;9.63;;;7.30;;
1691;SDS011;843;52.054;8.552;2023-11-21T20:23:37;8.67;;;7.33;;
1691;SDS011;843;52.054;8.552;2023-11-21T20:26:04;9.83;;;7.23;;
1691;SDS011;843;52.054;8.552;2023-11-21T20:28:30;8.53;;;7.73;;
1691;SDS011;843;52.054;8.552;2023-11-21T20:30:57;8.50;;;7.60;;
1691;SDS011;843;52.054;8.552;2023-11-21T20:33:27;7.20;;;6.50;;
1691;SDS011;843;52.054;8.552;2023-11-21T20:35:54;7.87;;;7.17;;
1691;SDS011;843;52.054;8.552;2023-11-21T20:38:20;8.30;;;7.30;;
1691;SDS011;843;52.054;8.552;2023-11-21T20:40:49;9.17;;;6.50;;
1691;SDS011;843;52.054;8.552;2023-11-21T20:43:15;9.57;;;6.77;;
1691;SDS011;843;52.054;8.552;2023-11-21T20:45:41;7.87;;;7.17;;
1691;SDS011;843;52.054;8.552;2023-11-21T20:48:08;14.57;;;8.23;;
1691;SDS011;843;52.054;8.552;2023-11-21T20:50:35;11.20;;;7.73;;
1691;SDS011;843;52.054;8.552;2023-11-21T20:53:03;11.13;;;6.87;;
1691;SDS011;843;52.054;8.552;2023-11-21T20:55:32;11.30;;;8.53;;
1691;SDS011;843;52.054;8.552;2023-11-21T20:58:00;9.33;;;8.30;;
1691;SDS011;843;52.054;8.552;2023-11-21T21:00:27;12.10;;;8.60;;
1691;SDS011;843;52.054;8.552;2023-11-21T21:02:53;9.20;;;8.17;;
1691;SDS011;843;52.054;8.552;2023-11-21T21:05:20;10.47;;;8.27;;
1691;SDS011;843;52.054;8.552;2023-11-21T21:07:47;10.00;;;8.70;;
1691;SDS011;843;52.054;8.552;2023-11-21T21:10:14;10.70;;;8.33;;
1691;SDS011;843;52.054;8.552;2023-11-21T21:12:40;10.17;;;8.40;;
1691;SDS011;843;52.054;8.552;2023-11-21T21:15:08;9.97;;;7.77;;
1691;SDS011;843;52.054;8.552;2023-11-21T21:17:36;11.07;;;8.20;;
1691;SDS011;843;52.054;8.552;2023-11-21T21:20:03;10.67;;;7.60;;
1691;SDS011;843;52.054;8.552;2023-11-21T21:22:31;10.70;;;8.43;;
1691;SDS011;843;52.054;8.552;2023-11-21T21:24:57;10.37;;;7.80;;
1691;SDS011;843;52.054;8.552;2023-11-21T21:27:23;11.97;;;7.80;;
1691;SDS011;843;52.054;8.552;2023-11-21T21:29:50;8.10;;;6.97;;
1691;SDS011;843;52.054;8.552;2023-11-21T21:32:19;11.17;;;6.73;;
1691;SDS011;843;52.054;8.552;2023-11-21T21:34:45;10.43;;;6.43;;
1691;SDS011;843;52.054;8.552;2023-11-21T21:37:12;10.27;;;6.77;;